sensor_id;sensor_type;location;lat;lon;timestamp;temperature;humidity
21425;DHT22;10873;51.132;16.848;2023-03-14T00:00:33;24.80;49.50
21425;DHT22;10873;51.132;16.848;2023-03-14T00:03:19;24.80;49.50
21425;DHT22;10873;51.132;16.848;2023-03-14T00:05:47;24.80;49.50
21425;DHT22;10873;51.132;16.848;2023-03-14T00:08:13;24.80;49.50
21425;DHT22;10873;51.132;16.848;2023-03-14T00:10:39;24.80;49.50
21425;DHT22;10873;51.132;16.848;2023-03-14T00:13:05;24.80;49.40
21425;DHT22;10873;51.132;16.848;2023-03-14T00:15:32;24.80;49.40
21425;DHT22;10873;51.132;16.848;2023-03-14T00:17:58;24.80;49.40
21425;DHT22;10873;51.132;16.848;2023-03-14T00:20:25;24.80;49.30
21425;DHT22;10873;51.132;16.848;2023-03-14T00:22:52;24.80;49.30
21425;DHT22;10873;51.132;16.848;2023-03-14T00:25:18;24.80;49.30
21425;DHT22;10873;51.132;16.848;2023-03-14T00:27:44;24.80;49.20
21425;DHT22;10873;51.132;16.848;2023-03-14T00:30:11;24.80;49.20
21425;DHT22;10873;51.132;16.848;2023-03-14T00:32:37;24.80;49.90
21425;DHT22;10873;51.132;16.848;2023-03-14T00:35:03;24.80;49.20
21425;DHT22;10873;51.132;16.848;2023-03-14T00:37:29;24.80;49.20
21425;DHT22;10873;51.132;16.848;2023-03-14T00:39:57;24.80;49.20
21425;DHT22;10873;51.132;16.848;2023-03-14T00:42:24;24.80;49.30
21425;DHT22;10873;51.132;16.848;2023-03-14T00:44:50;24.80;49.30
21425;DHT22;10873;51.132;16.848;2023-03-14T00:47:16;24.80;49.30
21425;DHT22;10873;51.132;16.848;2023-03-14T00:49:42;24.80;49.40
21425;DHT22;10873;51.132;16.848;2023-03-14T00:52:09;24.80;49.40
21425;DHT22;10873;51.132;16.848;2023-03-14T00:54:35;24.80;49.50
21425;DHT22;10873;51.132;16.848;2023-03-14T00:57:02;24.80;49.50
21425;DHT22;10873;51.132;16.848;2023-03-14T00:59:29;24.80;49.50
21425;DHT22;10873;51.132;16.848;2023-03-14T01:01:55;24.80;49.50
21425;DHT22;10873;51.132;16.848;2023-03-14T01:04:21;24.80;49.50
21425;DHT22;10873;51.132;16.848;2023-03-14T01:06:47;24.80;49.40
21425;DHT22;10873;51.132;16.848;2023-03-14T01:09:14;24.80;49.40
21425;DHT22;10873;51.132;16.848;2023-03-14T01:11:39;24.80;49.40
21425;DHT22;10873;51.132;16.848;2023-03-14T01:14:07;24.80;49.40
21425;DHT22;10873;51.132;16.848;2023-03-14T01:16:34;24.80;49.40
21425;DHT22;10873;51.132;16.848;2023-03-14T01:19:01;24.80;49.40
21425;DHT22;10873;51.132;16.848;2023-03-14T01:21:29;24.80;49.40
21425;DHT22;10873;51.132;16.848;2023-03-14T01:23:57;24.90;49.40
21425;DHT22;10873;51.132;16.848;2023-03-14T01:26:25;24.80;49.30
21425;DHT22;10873;51.132;16.848;2023-03-14T01:28:54;24.80;49.40
21425;DHT22;10873;51.132;16.848;2023-03-14T01:31:21;24.80;49.30
21425;DHT22;10873;51.132;16.848;2023-03-14T01:33:48;24.80;49.40
21425;DHT22;10873;51.132;16.848;2023-03-14T01:36:14;24.80;49.40
21425;DHT22;10873;51.132;16.848;2023-03-14T01:38:41;24.80;49.40
21425;DHT22;10873;51.132;16.848;2023-03-14T01:41:08;24.80;49.40
21425;DHT22;10873;51.132;16.848;2023-03-14T01:43:37;24.80;49.40
21425;DHT22;10873;51.132;16.848;2023-03-14T01:46:28;24.80;49.50
21425;DHT22;10873;51.132;16.848;2023-03-14T01:49:03;24.80;49.50
21425;DHT22;10873;51.132;16.848;2023-03-14T01:51:32;24.80;49.50
21425;DHT22;10873;51.132;16.848;2023-03-14T01:54:06;24.80;49.60
21425;DHT22;10873;51.132;16.848;2023-03-14T01:56:35;24.80;49.60
21425;DHT22;10873;51.132;16.848;2023-03-14T01:59:23;24.80;49.60
21425;DHT22;10873;51.132;16.848;2023-03-14T02:01:51;24.80;49.70
21425;DHT22;10873;51.132;16.848;2023-03-14T02:04:20;24.80;49.70
21425;DHT22;10873;51.132;16.848;2023-03-14T02:06:52;24.80;49.70
21425;DHT22;10873;51.132;16.848;2023-03-14T02:09:20;24.80;49.80
21425;DHT22;10873;51.132;16.848;2023-03-14T02:11:46;24.70;49.70
21425;DHT22;10873;51.132;16.848;2023-03-14T02:14:19;24.70;49.70
21425;DHT22;10873;51.132;16.848;2023-03-14T02:16:47;24.80;49.70
21425;DHT22;10873;51.132;16.848;2023-03-14T02:19:17;24.70;49.70
21425;DHT22;10873;51.132;16.848;2023-03-14T02:21:50;24.70;49.60
21425;DHT22;10873;51.132;16.848;2023-03-14T02:24:26;24.70;49.60
21425;DHT22;10873;51.132;16.848;2023-03-14T02:27:14;24.70;49.60
21425;DHT22;10873;51.132;16.848;2023-03-14T02:29:45;24.70;49.60
21425;DHT22;10873;51.132;16.848;2023-03-14T02:32:14;24.70;49.50
21425;DHT22;10873;51.132;16.848;2023-03-14T02:34:43;24.70;49.60
21425;DHT22;10873;51.132;16.848;2023-03-14T02:37:12;24.70;49.50
21425;DHT22;10873;51.132;16.848;2023-03-14T02:39:43;24.70;49.50
21425;DHT22;10873;51.132;16.848;2023-03-14T02:42:12;24.70;49.50
21425;DHT22;10873;51.132;16.848;2023-03-14T02:44:48;24.70;49.50
21425;DHT22;10873;51.132;16.848;2023-03-14T02:47:15;24.70;49.50
21425;DHT22;10873;51.132;16.848;2023-03-14T02:49:41;24.70;49.40
21425;DHT22;10873;51.132;16.848;2023-03-14T02:52:07;24.70;49.30
21425;DHT22;10873;51.132;16.848;2023-03-14T02:54:34;24.70;49.30
21425;DHT22;10873;51.132;16.848;2023-03-14T02:57:00;24.70;49.20
21425;DHT22;10873;51.132;16.848;2023-03-14T02:59:27;24.70;49.20
21425;DHT22;10873;51.132;16.848;2023-03-14T03:01:53;24.70;49.20
21425;DHT22;10873;51.132;16.848;2023-03-14T03:04:19;24.70;49.10
21425;DHT22;10873;51.132;16.848;2023-03-14T03:06:45;24.70;49.00
21425;DHT22;10873;51.132;16.848;2023-03-14T03:09:11;24.80;49.00
21425;DHT22;10873;51.132;16.848;2023-03-14T03:11:37;24.80;49.00
21425;DHT22;10873;51.132;16.848;2023-03-14T03:14:04;24.70;48.90
21425;DHT22;10873;51.132;16.848;2023-03-14T03:16:31;24.70;48.90
21425;DHT22;10873;51.132;16.848;2023-03-14T03:18:57;24.70;48.90
21425;DHT22;10873;51.132;16.848;2023-03-14T03:21:23;24.70;48.90
21425;DHT22;10873;51.132;16.848;2023-03-14T03:23:50;24.70;48.90
21425;DHT22;10873;51.132;16.848;2023-03-14T03:26:16;24.70;48.90
21425;DHT22;10873;51.132;16.848;2023-03-14T03:28:42;24.70;48.80
21425;DHT22;10873;51.132;16.848;2023-03-14T03:31:09;24.70;49.20
21425;DHT22;10873;51.132;16.848;2023-03-14T03:33:37;24.70;48.90
21425;DHT22;10873;51.132;16.848;2023-03-14T03:36:03;24.70;48.80
21425;DHT22;10873;51.132;16.848;2023-03-14T03:38:30;24.70;48.90
21425;DHT22;10873;51.132;16.848;2023-03-14T03:40:56;24.70;48.80
21425;DHT22;10873;51.132;16.848;2023-03-14T03:43:22;24.70;48.80
21425;DHT22;10873;51.132;16.848;2023-03-14T03:45:48;24.70;49.40
21425;DHT22;10873;51.132;16.848;2023-03-14T03:48:14;24.70;48.70
21425;DHT22;10873;51.132;16.848;2023-03-14T03:50:45;24.70;48.70
21425;DHT22;10873;51.132;16.848;2023-03-14T03:53:11;24.60;48.70
21425;DHT22;10873;51.132;16.848;2023-03-14T03:55:37;24.60;48.70
21425;DHT22;10873;51.132;16.848;2023-03-14T03:58:03;24.60;48.70
21425;DHT22;10873;51.132;16.848;2023-03-14T04:00:29;24.60;48.70
21425;DHT22;10873;51.132;16.848;2023-03-14T04:02:55;24.70;48.80
21425;DHT22;10873;51.132;16.848;2023-03-14T04:05:21;24.70;48.70
21425;DHT22;10873;51.132;16.848;2023-03-14T04:07:48;24.70;48.60
21425;DHT22;10873;51.132;16.848;2023-03-14T04:10:15;24.70;48.60
21425;DHT22;10873;51.132;16.848;2023-03-14T04:12:41;24.70;48.60
21425;DHT22;10873;51.132;16.848;2023-03-14T04:15:08;24.70;48.60
21425;DHT22;10873;51.132;16.848;2023-03-14T04:17:34;24.70;48.60
21425;DHT22;10873;51.132;16.848;2023-03-14T04:20:00;24.60;48.60
21425;DHT22;10873;51.132;16.848;2023-03-14T04:22:26;24.60;48.60
21425;DHT22;10873;51.132;16.848;2023-03-14T04:24:54;24.60;48.60
21425;DHT22;10873;51.132;16.848;2023-03-14T04:27:20;24.60;48.60
21425;DHT22;10873;51.132;16.848;2023-03-14T04:29:46;24.60;48.60
21425;DHT22;10873;51.132;16.848;2023-03-14T04:32:12;24.60;48.60
21425;DHT22;10873;51.132;16.848;2023-03-14T04:34:38;24.70;48.70
21425;DHT22;10873;51.132;16.848;2023-03-14T04:37:04;24.60;48.60
21425;DHT22;10873;51.132;16.848;2023-03-14T04:39:30;24.60;48.60
21425;DHT22;10873;51.132;16.848;2023-03-14T04:41:58;24.70;48.70
21425;DHT22;10873;51.132;16.848;2023-03-14T04:44:24;24.60;49.40
21425;DHT22;10873;51.132;16.848;2023-03-14T04:46:50;24.60;48.70
21425;DHT22;10873;51.132;16.848;2023-03-14T04:49:16;24.60;48.70
21425;DHT22;10873;51.132;16.848;2023-03-14T04:51:42;24.60;48.80
21425;DHT22;10873;51.132;16.848;2023-03-14T04:54:08;24.60;48.80
21425;DHT22;10873;51.132;16.848;2023-03-14T04:56:34;24.60;48.80
21425;DHT22;10873;51.132;16.848;2023-03-14T04:59:02;24.60;48.80
21425;DHT22;10873;51.132;16.848;2023-03-14T05:01:28;24.60;48.80
21425;DHT22;10873;51.132;16.848;2023-03-14T05:03:54;24.70;48.80
21425;DHT22;10873;51.132;16.848;2023-03-14T05:06:20;24.60;48.70
21425;DHT22;10873;51.132;16.848;2023-03-14T05:09:05;24.60;48.70
21425;DHT22;10873;51.132;16.848;2023-03-14T05:11:48;24.60;48.70
21425;DHT22;10873;51.132;16.848;2023-03-14T05:14:32;24.60;48.70
21425;DHT22;10873;51.132;16.848;2023-03-14T05:18:20;24.60;48.70
21425;DHT22;10873;51.132;16.848;2023-03-14T05:20:01;24.60;48.70
21425;DHT22;10873;51.132;16.848;2023-03-14T05:25:05;24.60;48.80
21425;DHT22;10873;51.132;16.848;2023-03-14T05:27:32;24.60;48.90
21425;DHT22;10873;51.132;16.848;2023-03-14T05:29:59;24.60;48.90
21425;DHT22;10873;51.132;16.848;2023-03-14T05:32:26;24.60;48.90
21425;DHT22;10873;51.132;16.848;2023-03-14T05:34:52;24.60;48.90
21425;DHT22;10873;51.132;16.848;2023-03-14T05:37:18;24.60;48.90
21425;DHT22;10873;51.132;16.848;2023-03-14T05:39:44;24.60;48.90
21425;DHT22;10873;51.132;16.848;2023-03-14T05:42:10;24.60;49.00
21425;DHT22;10873;51.132;16.848;2023-03-14T05:44:36;24.60;49.70
21425;DHT22;10873;51.132;16.848;2023-03-14T05:47:03;24.60;49.10
21425;DHT22;10873;51.132;16.848;2023-03-14T05:49:29;24.60;49.20
21425;DHT22;10873;51.132;16.848;2023-03-14T05:51:56;24.60;49.20
21425;DHT22;10873;51.132;16.848;2023-03-14T05:54:21;24.60;49.30
21425;DHT22;10873;51.132;16.848;2023-03-14T05:56:48;24.60;49.30
21425;DHT22;10873;51.132;16.848;2023-03-14T05:59:13;24.60;49.10
21425;DHT22;10873;51.132;16.848;2023-03-14T06:01:40;24.60;49.20
21425;DHT22;10873;51.132;16.848;2023-03-14T06:04:08;24.60;49.20
21425;DHT22;10873;51.132;16.848;2023-03-14T06:06:34;24.60;49.30
21425;DHT22;10873;51.132;16.848;2023-03-14T06:09:00;24.60;49.40
21425;DHT22;10873;51.132;16.848;2023-03-14T06:11:26;24.60;49.50
21425;DHT22;10873;51.132;16.848;2023-03-14T06:13:52;24.60;49.60
21425;DHT22;10873;51.132;16.848;2023-03-14T06:20:00;24.60;49.80
21425;DHT22;10873;51.132;16.848;2023-03-14T06:22:26;24.60;49.90
21425;DHT22;10873;51.132;16.848;2023-03-14T06:24:52;24.60;49.90
21425;DHT22;10873;51.132;16.848;2023-03-14T06:27:18;24.60;50.00
21425;DHT22;10873;51.132;16.848;2023-03-14T06:29:44;24.60;50.00
21425;DHT22;10873;51.132;16.848;2023-03-14T06:32:10;24.60;49.90
21425;DHT22;10873;51.132;16.848;2023-03-14T06:34:37;24.60;49.90
21425;DHT22;10873;51.132;16.848;2023-03-14T06:37:05;24.60;50.50
21425;DHT22;10873;51.132;16.848;2023-03-14T06:39:31;24.60;49.90
21425;DHT22;10873;51.132;16.848;2023-03-14T06:41:57;24.60;49.90
21425;DHT22;10873;51.132;16.848;2023-03-14T06:44:23;24.60;49.90
21425;DHT22;10873;51.132;16.848;2023-03-14T06:46:50;24.60;49.90
21425;DHT22;10873;51.132;16.848;2023-03-14T06:49:16;24.60;49.90
21425;DHT22;10873;51.132;16.848;2023-03-14T06:51:42;24.60;49.90
21425;DHT22;10873;51.132;16.848;2023-03-14T06:54:09;24.60;49.90
21425;DHT22;10873;51.132;16.848;2023-03-14T06:56:35;24.60;49.90
21425;DHT22;10873;51.132;16.848;2023-03-14T06:59:01;24.60;50.00
21425;DHT22;10873;51.132;16.848;2023-03-14T07:01:29;24.60;50.00
21425;DHT22;10873;51.132;16.848;2023-03-14T07:03:56;24.60;50.00
21425;DHT22;10873;51.132;16.848;2023-03-14T07:06:22;24.60;50.00
21425;DHT22;10873;51.132;16.848;2023-03-14T07:08:48;24.60;50.00
21425;DHT22;10873;51.132;16.848;2023-03-14T07:11:16;24.60;50.00
21425;DHT22;10873;51.132;16.848;2023-03-14T07:13:42;24.60;50.00
21425;DHT22;10873;51.132;16.848;2023-03-14T07:16:08;24.70;50.10
21425;DHT22;10873;51.132;16.848;2023-03-14T07:18:35;24.70;50.00
21425;DHT22;10873;51.132;16.848;2023-03-14T07:21:01;24.70;50.00
21425;DHT22;10873;51.132;16.848;2023-03-14T07:23:27;24.70;50.00
21425;DHT22;10873;51.132;16.848;2023-03-14T07:25:53;24.70;50.00
21425;DHT22;10873;51.132;16.848;2023-03-14T07:28:20;24.70;49.90
21425;DHT22;10873;51.132;16.848;2023-03-14T07:30:48;24.70;49.90
21425;DHT22;10873;51.132;16.848;2023-03-14T07:33:15;24.70;49.90
21425;DHT22;10873;51.132;16.848;2023-03-14T07:35:41;24.70;49.90
21425;DHT22;10873;51.132;16.848;2023-03-14T07:38:07;24.70;49.90
21425;DHT22;10873;51.132;16.848;2023-03-14T07:40:33;24.70;49.80
21425;DHT22;10873;51.132;16.848;2023-03-14T07:42:59;24.70;49.80
21425;DHT22;10873;51.132;16.848;2023-03-14T07:45:27;24.70;49.70
21425;DHT22;10873;51.132;16.848;2023-03-14T07:47:54;24.70;49.80
21425;DHT22;10873;51.132;16.848;2023-03-14T07:50:23;24.70;49.70
21425;DHT22;10873;51.132;16.848;2023-03-14T07:52:49;24.70;49.70
21425;DHT22;10873;51.132;16.848;2023-03-14T07:55:15;24.70;49.70
21425;DHT22;10873;51.132;16.848;2023-03-14T07:57:41;24.70;49.70
21425;DHT22;10873;51.132;16.848;2023-03-14T08:00:08;24.70;49.70
21425;DHT22;10873;51.132;16.848;2023-03-14T08:02:36;24.80;49.70
21425;DHT22;10873;51.132;16.848;2023-03-14T08:05:02;24.80;49.70
21425;DHT22;10873;51.132;16.848;2023-03-14T08:07:28;24.80;49.70
21425;DHT22;10873;51.132;16.848;2023-03-14T08:09:54;24.70;49.60
21425;DHT22;10873;51.132;16.848;2023-03-14T08:12:21;24.80;49.60
21425;DHT22;10873;51.132;16.848;2023-03-14T08:14:47;24.80;49.50
21425;DHT22;10873;51.132;16.848;2023-03-14T08:17:13;24.80;49.50
21425;DHT22;10873;51.132;16.848;2023-03-14T08:19:41;24.80;49.50
21425;DHT22;10873;51.132;16.848;2023-03-14T08:22:09;24.80;49.50
21425;DHT22;10873;51.132;16.848;2023-03-14T08:24:35;24.80;49.50
21425;DHT22;10873;51.132;16.848;2023-03-14T08:27:01;24.80;49.50
21425;DHT22;10873;51.132;16.848;2023-03-14T08:29:27;24.80;50.10
21425;DHT22;10873;51.132;16.848;2023-03-14T08:31:53;24.80;49.50
21425;DHT22;10873;51.132;16.848;2023-03-14T08:34:20;24.80;49.50
21425;DHT22;10873;51.132;16.848;2023-03-14T08:36:48;24.80;49.40
21425;DHT22;10873;51.132;16.848;2023-03-14T08:39:14;24.80;49.40
21425;DHT22;10873;51.132;16.848;2023-03-14T08:41:40;24.90;49.40
21425;DHT22;10873;51.132;16.848;2023-03-14T08:44:09;24.80;49.30
21425;DHT22;10873;51.132;16.848;2023-03-14T08:46:35;24.80;49.30
21425;DHT22;10873;51.132;16.848;2023-03-14T08:49:01;24.80;49.30
21425;DHT22;10873;51.132;16.848;2023-03-14T08:51:27;24.80;49.30
21425;DHT22;10873;51.132;16.848;2023-03-14T08:53:55;24.80;49.30
21425;DHT22;10873;51.132;16.848;2023-03-14T08:56:21;24.80;49.30
21425;DHT22;10873;51.132;16.848;2023-03-14T08:58:47;24.80;49.40
21425;DHT22;10873;51.132;16.848;2023-03-14T09:01:13;24.80;49.40
21425;DHT22;10873;51.132;16.848;2023-03-14T09:03:39;24.80;49.50
21425;DHT22;10873;51.132;16.848;2023-03-14T09:06:07;24.80;49.50
21425;DHT22;10873;51.132;16.848;2023-03-14T09:08:33;24.80;49.50
21425;DHT22;10873;51.132;16.848;2023-03-14T09:11:01;24.80;49.50
21425;DHT22;10873;51.132;16.848;2023-03-14T09:13:27;24.80;49.50
21425;DHT22;10873;51.132;16.848;2023-03-14T09:15:54;24.80;49.50
21425;DHT22;10873;51.132;16.848;2023-03-14T09:18:20;24.80;49.50
21425;DHT22;10873;51.132;16.848;2023-03-14T09:20:47;24.80;49.50
21425;DHT22;10873;51.132;16.848;2023-03-14T09:23:13;24.90;49.50
21425;DHT22;10873;51.132;16.848;2023-03-14T09:25:39;24.90;49.50
21425;DHT22;10873;51.132;16.848;2023-03-14T09:28:06;24.80;49.50
21425;DHT22;10873;51.132;16.848;2023-03-14T09:30:33;24.80;49.40
21425;DHT22;10873;51.132;16.848;2023-03-14T09:32:59;24.80;49.50
21425;DHT22;10873;51.132;16.848;2023-03-14T09:35:25;24.80;49.50
21425;DHT22;10873;51.132;16.848;2023-03-14T09:37:51;24.80;49.40
21425;DHT22;10873;51.132;16.848;2023-03-14T09:40:19;24.80;49.50
21425;DHT22;10873;51.132;16.848;2023-03-14T09:42:48;24.90;49.50
21425;DHT22;10873;51.132;16.848;2023-03-14T09:45:21;24.80;49.50
21425;DHT22;10873;51.132;16.848;2023-03-14T09:47:49;24.80;49.60
21425;DHT22;10873;51.132;16.848;2023-03-14T09:50:16;24.80;49.50
21425;DHT22;10873;51.132;16.848;2023-03-14T09:52:44;24.90;49.60
21425;DHT22;10873;51.132;16.848;2023-03-14T10:03:22;24.90;49.60
21425;DHT22;10873;51.132;16.848;2023-03-14T10:05:51;24.90;49.60
21425;DHT22;10873;51.132;16.848;2023-03-14T10:08:19;24.90;49.60
21425;DHT22;10873;51.132;16.848;2023-03-14T10:11:00;24.90;49.50
21425;DHT22;10873;51.132;16.848;2023-03-14T10:13:28;24.90;50.20
21425;DHT22;10873;51.132;16.848;2023-03-14T10:15:58;24.90;49.50
21425;DHT22;10873;51.132;16.848;2023-03-14T10:18:31;24.90;49.50
21425;DHT22;10873;51.132;16.848;2023-03-14T10:21:05;24.90;49.50
21425;DHT22;10873;51.132;16.848;2023-03-14T10:23:37;24.90;49.50
21425;DHT22;10873;51.132;16.848;2023-03-14T10:26:07;24.90;49.50
21425;DHT22;10873;51.132;16.848;2023-03-14T10:28:38;24.90;49.50
21425;DHT22;10873;51.132;16.848;2023-03-14T10:31:05;24.90;49.60
21425;DHT22;10873;51.132;16.848;2023-03-14T10:33:35;24.90;49.60
21425;DHT22;10873;51.132;16.848;2023-03-14T10:36:03;24.90;49.70
21425;DHT22;10873;51.132;16.848;2023-03-14T10:38:31;24.90;49.80
21425;DHT22;10873;51.132;16.848;2023-03-14T10:40:58;24.90;49.70
21425;DHT22;10873;51.132;16.848;2023-03-14T10:43:26;24.90;49.80
21425;DHT22;10873;51.132;16.848;2023-03-14T10:45:54;24.90;49.80
21425;DHT22;10873;51.132;16.848;2023-03-14T10:48:30;24.90;49.80
21425;DHT22;10873;51.132;16.848;2023-03-14T10:51:03;25.00;49.90
21425;DHT22;10873;51.132;16.848;2023-03-14T10:53:34;24.90;49.80
21425;DHT22;10873;51.132;16.848;2023-03-14T10:56:02;25.00;49.90
21425;DHT22;10873;51.132;16.848;2023-03-14T10:58:30;25.00;49.90
21425;DHT22;10873;51.132;16.848;2023-03-14T11:01:06;25.00;49.80
21425;DHT22;10873;51.132;16.848;2023-03-14T11:03:36;25.00;49.80
21425;DHT22;10873;51.132;16.848;2023-03-14T11:06:11;25.00;49.80
21425;DHT22;10873;51.132;16.848;2023-03-14T11:08:44;25.00;49.80
21425;DHT22;10873;51.132;16.848;2023-03-14T11:11:18;25.00;49.80
21425;DHT22;10873;51.132;16.848;2023-03-14T11:13:59;25.00;49.80
21425;DHT22;10873;51.132;16.848;2023-03-14T11:16:32;25.00;49.80
21425;DHT22;10873;51.132;16.848;2023-03-14T11:19:08;25.00;49.80
21425;DHT22;10873;51.132;16.848;2023-03-14T11:21:42;25.00;49.80
21425;DHT22;10873;51.132;16.848;2023-03-14T11:24:33;25.00;49.80
21425;DHT22;10873;51.132;16.848;2023-03-14T11:27:08;25.00;49.90
21425;DHT22;10873;51.132;16.848;2023-03-14T11:29:43;25.00;49.90
21425;DHT22;10873;51.132;16.848;2023-03-14T11:32:34;25.00;49.90
21425;DHT22;10873;51.132;16.848;2023-03-14T11:35:16;25.00;50.00
21425;DHT22;10873;51.132;16.848;2023-03-14T11:37:51;25.00;50.00
21425;DHT22;10873;51.132;16.848;2023-03-14T11:40:20;25.00;50.00
21425;DHT22;10873;51.132;16.848;2023-03-14T11:42:53;25.00;50.00
21425;DHT22;10873;51.132;16.848;2023-03-14T11:45:26;25.00;50.00
21425;DHT22;10873;51.132;16.848;2023-03-14T11:48:10;25.00;50.00
21425;DHT22;10873;51.132;16.848;2023-03-14T11:50:41;25.00;50.00
21425;DHT22;10873;51.132;16.848;2023-03-14T11:53:13;25.00;50.00
21425;DHT22;10873;51.132;16.848;2023-03-14T11:55:42;25.00;50.00
21425;DHT22;10873;51.132;16.848;2023-03-14T11:58:13;25.00;50.00
21425;DHT22;10873;51.132;16.848;2023-03-14T12:01:09;25.00;50.00
21425;DHT22;10873;51.132;16.848;2023-03-14T12:04:16;25.00;50.00
21425;DHT22;10873;51.132;16.848;2023-03-14T12:06:48;25.00;50.00
21425;DHT22;10873;51.132;16.848;2023-03-14T12:09:16;25.00;50.00
21425;DHT22;10873;51.132;16.848;2023-03-14T12:11:46;25.00;50.00
21425;DHT22;10873;51.132;16.848;2023-03-14T12:14:20;25.00;50.00
21425;DHT22;10873;51.132;16.848;2023-03-14T12:16:47;25.00;50.00
21425;DHT22;10873;51.132;16.848;2023-03-14T12:19:32;25.00;50.00
21425;DHT22;10873;51.132;16.848;2023-03-14T12:22:06;24.90;50.00
21425;DHT22;10873;51.132;16.848;2023-03-14T12:24:36;24.90;50.00
21425;DHT22;10873;51.132;16.848;2023-03-14T12:27:05;24.90;50.00
21425;DHT22;10873;51.132;16.848;2023-03-14T12:29:31;24.90;50.00
21425;DHT22;10873;51.132;16.848;2023-03-14T12:32:12;24.90;50.10
21425;DHT22;10873;51.132;16.848;2023-03-14T12:34:46;24.90;50.10
21425;DHT22;10873;51.132;16.848;2023-03-14T12:37:23;25.00;50.20
21425;DHT22;10873;51.132;16.848;2023-03-14T12:40:03;25.00;50.10
21425;DHT22;10873;51.132;16.848;2023-03-14T12:42:46;24.90;50.10
21425;DHT22;10873;51.132;16.848;2023-03-14T12:45:25;25.00;50.10
21425;DHT22;10873;51.132;16.848;2023-03-14T12:47:54;25.00;50.10
21425;DHT22;10873;51.132;16.848;2023-03-14T12:50:25;25.00;50.00
21425;DHT22;10873;51.132;16.848;2023-03-14T12:53:05;25.00;50.00
21425;DHT22;10873;51.132;16.848;2023-03-14T12:55:37;25.00;50.00
21425;DHT22;10873;51.132;16.848;2023-03-14T12:58:12;25.00;50.00
21425;DHT22;10873;51.132;16.848;2023-03-14T13:00:42;25.00;50.00
21425;DHT22;10873;51.132;16.848;2023-03-14T13:03:18;25.10;50.00
21425;DHT22;10873;51.132;16.848;2023-03-14T13:05:52;25.10;50.00
21425;DHT22;10873;51.132;16.848;2023-03-14T13:08:33;25.10;50.10
21425;DHT22;10873;51.132;16.848;2023-03-14T13:11:01;25.10;50.10
21425;DHT22;10873;51.132;16.848;2023-03-14T13:13:28;25.10;50.00
21425;DHT22;10873;51.132;16.848;2023-03-14T13:30:05;25.00;50.00
21425;DHT22;10873;51.132;16.848;2023-03-14T13:32:42;25.00;50.00
21425;DHT22;10873;51.132;16.848;2023-03-14T13:35:16;25.00;50.10
21425;DHT22;10873;51.132;16.848;2023-03-14T13:37:42;25.00;50.10
21425;DHT22;10873;51.132;16.848;2023-03-14T13:40:19;25.00;50.10
21425;DHT22;10873;51.132;16.848;2023-03-14T13:42:48;25.00;50.10
21425;DHT22;10873;51.132;16.848;2023-03-14T13:45:19;25.00;50.10
21425;DHT22;10873;51.132;16.848;2023-03-14T13:47:45;25.10;50.20
21425;DHT22;10873;51.132;16.848;2023-03-14T13:50:16;25.00;50.20
21425;DHT22;10873;51.132;16.848;2023-03-14T14:00:07;25.00;50.20
21425;DHT22;10873;51.132;16.848;2023-03-14T14:02:38;25.00;50.20
21425;DHT22;10873;51.132;16.848;2023-03-14T14:05:05;25.00;50.20
21425;DHT22;10873;51.132;16.848;2023-03-14T14:07:31;25.00;50.20
21425;DHT22;10873;51.132;16.848;2023-03-14T14:09:59;25.00;50.20
21425;DHT22;10873;51.132;16.848;2023-03-14T14:12:30;25.00;50.20
21425;DHT22;10873;51.132;16.848;2023-03-14T14:15:00;25.00;50.20
21425;DHT22;10873;51.132;16.848;2023-03-14T14:17:31;25.00;50.20
21425;DHT22;10873;51.132;16.848;2023-03-14T14:20:00;25.00;50.20
21425;DHT22;10873;51.132;16.848;2023-03-14T14:22:30;25.00;50.20
21425;DHT22;10873;51.132;16.848;2023-03-14T14:24:56;25.00;50.20
21425;DHT22;10873;51.132;16.848;2023-03-14T14:27:28;25.00;50.30
21425;DHT22;10873;51.132;16.848;2023-03-14T14:29:59;24.90;50.30
21425;DHT22;10873;51.132;16.848;2023-03-14T14:32:27;24.90;50.40
21425;DHT22;10873;51.132;16.848;2023-03-14T14:35:01;24.90;51.20
21425;DHT22;10873;51.132;16.848;2023-03-14T14:37:31;24.90;50.50
21425;DHT22;10873;51.132;16.848;2023-03-14T14:39:59;24.90;50.50
21425;DHT22;10873;51.132;16.848;2023-03-14T14:42:29;24.90;50.50
21425;DHT22;10873;51.132;16.848;2023-03-14T14:44:56;24.90;50.50
21425;DHT22;10873;51.132;16.848;2023-03-14T14:47:24;24.90;50.40
21425;DHT22;10873;51.132;16.848;2023-03-14T14:49:51;24.90;50.50
21425;DHT22;10873;51.132;16.848;2023-03-14T14:52:22;24.90;50.40
21425;DHT22;10873;51.132;16.848;2023-03-14T14:54:58;24.90;50.40
21425;DHT22;10873;51.132;16.848;2023-03-14T14:57:26;25.00;50.50
21425;DHT22;10873;51.132;16.848;2023-03-14T15:00:00;25.00;50.50
21425;DHT22;10873;51.132;16.848;2023-03-14T15:02:35;24.90;50.50
21425;DHT22;10873;51.132;16.848;2023-03-14T15:05:01;24.90;50.60
21425;DHT22;10873;51.132;16.848;2023-03-14T15:07:29;25.00;50.70
21425;DHT22;10873;51.132;16.848;2023-03-14T15:09:55;24.90;50.80
21425;DHT22;10873;51.132;16.848;2023-03-14T15:12:21;24.90;50.90
21425;DHT22;10873;51.132;16.848;2023-03-14T15:14:50;24.90;51.00
21425;DHT22;10873;51.132;16.848;2023-03-14T15:17:16;24.90;51.10
21425;DHT22;10873;51.132;16.848;2023-03-14T15:19:42;24.90;51.20
21425;DHT22;10873;51.132;16.848;2023-03-14T15:22:12;24.90;51.30
21425;DHT22;10873;51.132;16.848;2023-03-14T15:24:40;24.90;51.20
21425;DHT22;10873;51.132;16.848;2023-03-14T15:27:12;24.90;51.20
21425;DHT22;10873;51.132;16.848;2023-03-14T15:29:38;24.90;51.10
21425;DHT22;10873;51.132;16.848;2023-03-14T15:32:05;24.90;51.20
21425;DHT22;10873;51.132;16.848;2023-03-14T15:34:32;25.00;51.40
21425;DHT22;10873;51.132;16.848;2023-03-14T15:36:58;24.90;51.60
21425;DHT22;10873;51.132;16.848;2023-03-14T15:39:24;24.90;52.00
21425;DHT22;10873;51.132;16.848;2023-03-14T15:41:51;24.90;52.10
21425;DHT22;10873;51.132;16.848;2023-03-14T15:44:17;24.90;52.10
21425;DHT22;10873;51.132;16.848;2023-03-14T15:46:43;24.90;52.10
21425;DHT22;10873;51.132;16.848;2023-03-14T15:49:09;24.90;52.10
21425;DHT22;10873;51.132;16.848;2023-03-14T15:51:35;24.90;52.20
21425;DHT22;10873;51.132;16.848;2023-03-14T15:54:01;24.90;53.00
21425;DHT22;10873;51.132;16.848;2023-03-14T15:56:28;24.80;53.50
21425;DHT22;10873;51.132;16.848;2023-03-14T15:58:57;24.80;54.00
21425;DHT22;10873;51.132;16.848;2023-03-14T16:01:24;24.80;53.70